createdAt,value
2016-06-05T00:00:06.352Z,53.11
2016-06-05T00:01:06.402Z,52.92
2016-06-05T00:02:06.451Z,53.5
2016-06-05T00:03:06.500Z,53.02
2016-06-05T00:04:06.550Z,52.36
2016-06-05T00:05:06.616Z,53.31
2016-06-05T00:06:06.650Z,53.21
2016-06-05T00:07:06.699Z,53.21
2016-06-05T00:08:06.748Z,53.21
2016-06-05T00:09:06.799Z,54.27
2016-06-05T00:10:06.847Z,53.11
2016-06-05T00:11:06.897Z,53.5
2016-06-05T00:12:06.947Z,53.5
2016-06-05T00:13:06.997Z,53.69
2016-06-05T00:14:07.046Z,53.69
2016-06-05T00:15:07.095Z,53.89
2016-06-05T00:16:07.145Z,54.08
2016-06-05T00:17:07.210Z,54.53
2016-06-05T00:18:07.260Z,53.79
2016-06-05T00:19:07.154Z,53.59
2016-06-05T00:20:07.359Z,54.17
2016-06-05T00:21:07.409Z,53.79
2016-06-05T00:22:07.459Z,54.08
2016-06-05T00:23:07.492Z,54.17
2016-06-05T00:24:07.557Z,53.69
2016-06-05T00:25:07.607Z,53.79
2016-06-05T00:26:07.657Z,54.08
2016-06-05T00:27:07.706Z,53.89
2016-06-05T00:28:07.615Z,53.69
2016-06-05T00:29:07.805Z,53.79
2016-06-05T00:30:07.855Z,53.41
2016-06-05T00:31:07.904Z,53.69
2016-06-05T00:32:07.953Z,54.93
2016-06-05T00:33:08.003Z,54.35
2016-06-05T00:34:08.053Z,54.53
2016-06-05T00:35:08.102Z,55.21
2016-06-05T00:36:08.152Z,55.96
2016-06-05T00:37:08.202Z,55.67
2016-06-05T00:38:08.252Z,55.89
2016-06-05T00:39:08.300Z,55.57
2016-06-05T00:40:08.350Z,55.21
2016-06-05T00:41:08.447Z,55.41
2016-06-05T00:42:08.450Z,55.11
2016-06-05T00:43:09.061Z,55.41
2016-06-05T00:44:08.548Z,54.73
2016-06-05T00:45:08.599Z,54.63
2016-06-05T00:46:08.663Z,54.47
2016-06-05T00:47:08.696Z,54.57
2016-06-05T00:48:08.746Z,54.75
2016-06-05T00:49:08.796Z,54.17
2016-06-05T00:50:08.862Z,53.99
2016-06-05T00:51:08.912Z,53.69
2016-06-05T00:52:08.945Z,53.79
2016-06-05T00:53:09.010Z,53.79
2016-06-05T00:54:09.060Z,53.99
2016-06-05T00:55:09.109Z,53.5
2016-06-05T00:56:09.143Z,53.23
2016-06-05T00:57:09.193Z,52.73
2016-06-05T00:58:09.149Z,53.33
2016-06-05T00:59:09.323Z,53.89
2016-06-05T01:00:09.373Z,53.59
2016-06-05T01:01:09.407Z,53.59
2016-06-05T01:02:09.456Z,53.99
2016-06-05T01:03:09.505Z,53.79
2016-06-05T01:04:09.556Z,53.5
2016-06-05T01:05:09.620Z,53.69
2016-06-05T01:06:09.655Z,53.31
2016-06-05T01:07:09.705Z,53.02
2016-06-05T01:08:09.753Z,53.41
2016-06-05T01:09:09.803Z,54.17
2016-06-05T01:10:09.853Z,52.82
2016-06-05T01:11:09.903Z,52.92
2016-06-05T01:12:09.968Z,53.99
2016-06-05T01:13:10.002Z,53.99
2016-06-05T01:14:10.066Z,54.08
2016-06-05T01:15:10.116Z,53.59
2016-06-05T01:16:10.150Z,54.85
2016-06-05T01:17:10.215Z,54.73
2016-06-05T01:18:10.265Z,54.08
2016-06-05T01:19:10.299Z,53.5
2016-06-05T01:20:10.349Z,53.79
2016-06-05T01:21:10.399Z,54.08
2016-06-05T01:22:10.463Z,54.08
2016-06-05T01:23:10.513Z,54.08
2016-06-05T01:24:10.562Z,54.27
2016-06-05T01:25:10.628Z,54.57
2016-06-05T01:26:10.662Z,53.79
2016-06-05T01:27:10.711Z,53.99
2016-06-05T01:28:10.776Z,53.69
2016-06-05T01:29:10.810Z,53.99
2016-06-05T01:30:10.859Z,54.08
2016-06-05T01:31:10.926Z,53.89
2016-06-05T01:32:10.959Z,53.5
2016-06-05T01:33:11.008Z,52.92
2016-06-05T01:34:11.058Z,53.41
2016-06-05T01:35:11.108Z,54.08
2016-06-05T01:36:11.158Z,53.5
2016-06-05T01:37:11.207Z,53.79
2016-06-05T01:38:11.256Z,53.89
2016-06-05T01:39:11.305Z,52.92
2016-06-05T01:40:11.372Z,53.89
2016-06-05T01:41:11.467Z,53.79
2016-06-05T01:42:11.455Z,53.31
2016-06-05T01:43:11.661Z,54.66
2016-06-05T01:44:11.555Z,54.85
2016-06-05T01:45:11.619Z,54.37
2016-06-05T01:46:11.668Z,54.73
2016-06-05T01:47:11.702Z,54.85
2016-06-05T01:48:11.768Z,53.89
2016-06-05T01:49:11.817Z,55.02
2016-06-05T01:50:11.867Z,55.11
2016-06-05T01:51:11.916Z,55.6
2016-06-05T01:52:11.966Z,55.31
2016-06-05T01:53:11.999Z,55.11
2016-06-05T01:54:12.065Z,55.11
2016-06-05T01:55:12.115Z,55.77
2016-06-05T01:56:12.165Z,56.15
2016-06-05T01:57:12.214Z,55.79
2016-06-05T01:58:12.809Z,55.31
2016-06-05T01:59:12.312Z,54.93
2016-06-05T02:00:12.363Z,54.63
2016-06-05T02:01:12.428Z,55.02
2016-06-05T02:02:12.462Z,55.02
2016-06-05T02:03:12.512Z,54.73
2016-06-05T02:04:12.561Z,54.53
2016-06-05T02:05:12.611Z,54.53
2016-06-05T02:06:12.659Z,54.47
2016-06-05T02:07:12.709Z,54.37
2016-06-05T02:08:12.775Z,54.17
2016-06-05T02:09:12.824Z,54.85
2016-06-05T02:10:12.858Z,54.17
2016-06-05T02:11:12.923Z,54.95
2016-06-05T02:12:12.973Z,54.17
2016-06-05T02:13:13.147Z,54.17
2016-06-05T02:14:13.072Z,53.89
2016-06-05T02:15:13.121Z,54.08
2016-06-05T02:16:13.171Z,54.17
2016-06-05T02:17:13.221Z,54.27
2016-06-05T02:18:13.254Z,54.08
2016-06-05T02:19:13.319Z,53.89
2016-06-05T02:20:13.369Z,53.89
2016-06-05T02:21:13.404Z,54.08
2016-06-05T02:22:13.468Z,53.69
2016-06-05T02:23:13.518Z,54.27
2016-06-05T02:24:13.567Z,53.5
2016-06-05T02:25:13.617Z,53.69
2016-06-05T02:26:13.668Z,54.27
2016-06-05T02:27:13.716Z,53.69
2016-06-05T02:28:13.765Z,53.59
2016-06-05T02:29:13.815Z,53.59
2016-06-05T02:30:13.865Z,53.5
2016-06-05T02:31:13.915Z,53.41
2016-06-05T02:32:13.964Z,53.69
2016-06-05T02:33:14.014Z,53.69
2016-06-05T02:34:14.079Z,53.79
2016-06-05T02:35:14.112Z,53.31
2016-06-05T02:36:14.162Z,53.79
2016-06-05T02:37:14.212Z,53.69
2016-06-05T02:38:14.262Z,53.41
2016-06-05T02:39:14.311Z,54.27
2016-06-05T02:40:14.360Z,53.59
2016-06-05T02:41:14.458Z,54.17
2016-06-05T02:42:14.460Z,54.25
2016-06-05T02:43:14.743Z,54.44
2016-06-05T02:44:14.559Z,55.02
2016-06-05T02:45:14.608Z,54.93
2016-06-05T02:46:14.658Z,54.93
2016-06-05T02:47:14.724Z,55.02
2016-06-05T02:48:14.773Z,54.25
2016-06-05T02:49:14.807Z,54.93
2016-06-05T02:50:14.872Z,55.38
2016-06-05T02:51:14.922Z,55.31
2016-06-05T02:52:14.956Z,55.31
2016-06-05T02:53:15.021Z,56.25
2016-06-05T02:54:15.054Z,55.57
2016-06-05T02:55:15.105Z,55.96
2016-06-05T02:56:15.169Z,56.22
2016-06-05T02:57:15.218Z,56.35
2016-06-05T02:58:15.816Z,56.15
2016-06-05T02:59:15.318Z,56.13
2016-06-05T03:00:15.367Z,56.61
2016-06-05T03:01:15.401Z,56.35
2016-06-05T03:02:15.467Z,56.54
2016-06-05T03:03:15.517Z,56.05
2016-06-05T03:04:15.565Z,56.45
2016-06-05T03:05:15.615Z,56.45
2016-06-05T03:06:15.649Z,56.15
2016-06-05T03:07:15.698Z,56.25
2016-06-05T03:08:15.764Z,56.45
2016-06-05T03:09:15.797Z,55.87
2016-06-05T03:10:15.848Z,55.96
2016-06-05T03:11:15.914Z,55.96
2016-06-05T03:12:15.947Z,56.15
2016-06-05T03:13:15.997Z,56.25
2016-06-05T03:14:16.061Z,56.15
2016-06-05T03:15:16.111Z,55.38
2016-06-05T03:16:16.161Z,56.15
2016-06-05T03:17:16.194Z,56.05
2016-06-05T03:18:16.260Z,56.05
2016-06-05T03:19:16.309Z,56.05
2016-06-05T03:20:16.343Z,55.96
2016-06-05T03:21:16.393Z,56.25
2016-06-05T03:22:16.457Z,56.35
2016-06-05T03:23:16.507Z,56.61
2016-06-05T03:24:16.557Z,56.32
2016-06-05T03:25:16.607Z,56.22
2016-06-05T03:26:16.657Z,55.96
2016-06-05T03:27:16.706Z,55.87
2016-06-05T03:28:16.755Z,55.96
2016-06-05T03:29:16.790Z,55.96
2016-06-05T03:30:16.854Z,56.25
2016-06-05T03:31:16.904Z,56.32
2016-06-05T03:32:16.954Z,56.05
2016-06-05T03:33:17.003Z,56.05
2016-06-05T03:34:17.053Z,55.96
2016-06-05T03:35:17.087Z,55.96
2016-06-05T03:36:17.152Z,55.96
2016-06-05T03:37:17.217Z,56.35
2016-06-05T03:38:17.251Z,55.87
2016-06-05T03:39:17.301Z,56.15
2016-06-05T03:40:17.350Z,55.67
2016-06-05T03:41:17.447Z,55.38
2016-06-05T03:42:17.449Z,55.19
2016-06-05T03:43:17.843Z,55.77
2016-06-05T03:44:17.533Z,56.05
2016-06-05T03:45:17.582Z,55.38
2016-06-05T03:46:17.647Z,55.31
2016-06-05T03:47:17.697Z,55.57
2016-06-05T03:48:17.731Z,56.25
2016-06-05T03:49:17.797Z,56.25
2016-06-05T03:50:17.846Z,56.25
2016-06-05T03:51:17.896Z,56.35
2016-06-05T03:52:17.945Z,56.03
2016-06-05T03:53:17.979Z,57.38
2016-06-05T03:54:18.044Z,57.35
2016-06-05T03:55:18.094Z,57.45
2016-06-05T03:56:18.143Z,57.16
2016-06-05T03:57:18.193Z,57.64
2016-06-05T03:58:18.570Z,57.54
2016-06-05T03:59:18.276Z,57.54
2016-06-05T04:00:18.341Z,56.99
2016-06-05T04:01:18.391Z,57.09
2016-06-05T04:02:18.426Z,56.99
2016-06-05T04:03:18.490Z,56.22
2016-06-05T04:04:18.540Z,56.61
2016-06-05T04:05:18.590Z,56.51
2016-06-05T04:06:18.639Z,55.96
2016-06-05T04:07:18.689Z,56.25
2016-06-05T04:08:18.737Z,56.15
2016-06-05T04:09:18.787Z,56.15
2016-06-05T04:10:18.822Z,56.25
2016-06-05T04:11:18.887Z,55.57
2016-06-05T04:12:18.936Z,55.87
2016-06-05T04:13:18.986Z,55.19
2016-06-05T04:14:19.020Z,55.21
2016-06-05T04:15:18.929Z,55.09
2016-06-05T04:16:19.134Z,55.38
2016-06-05T04:17:19.191Z,55.09
2016-06-05T04:18:19.268Z,55.19
2016-06-05T04:19:19.345Z,55.11
2016-06-05T04:20:19.423Z,55.67
2016-06-05T04:21:19.500Z,55.19
2016-06-05T04:22:19.557Z,56.15
2016-06-05T04:23:19.632Z,56.25
2016-06-05T04:24:19.691Z,56.15
2016-06-05T04:25:19.751Z,56.15
2016-06-05T04:26:19.811Z,55.09
2016-06-05T04:27:19.869Z,55.57
2016-06-05T04:28:19.923Z,55.57
2016-06-05T04:29:20.179Z,54.99
2016-06-05T04:30:19.873Z,55.38
2016-06-05T04:31:20.098Z,55.09
2016-06-05T04:32:20.135Z,56.05
2016-06-05T04:33:20.185Z,56.41
2016-06-05T04:34:20.237Z,56.13
2016-06-05T04:35:20.287Z,55.87
2016-06-05T04:36:20.338Z,56.03
2016-06-05T04:37:20.403Z,56.25
2016-06-05T04:38:20.439Z,55.96
2016-06-05T04:39:20.488Z,56.03
2016-06-05T04:40:20.538Z,55.87
2016-06-05T04:41:20.651Z,56.35
2016-06-05T04:42:20.638Z,55.47
2016-06-05T04:43:20.689Z,56.05
2016-06-05T04:44:20.739Z,55.96
2016-06-05T04:45:20.788Z,55.67
2016-06-05T04:46:20.839Z,56.03
2016-06-05T04:47:20.888Z,56.51
2016-06-05T04:48:20.937Z,56.03
2016-06-05T04:49:21.003Z,55.96
2016-06-05T04:50:21.036Z,55.93
2016-06-05T04:51:21.086Z,56.61
2016-06-05T04:52:21.152Z,56.61
2016-06-05T04:53:21.186Z,57.48
2016-06-05T04:54:21.235Z,58.03
2016-06-05T04:55:21.300Z,57.64
2016-06-05T04:56:21.333Z,57.57
2016-06-05T04:57:21.384Z,57.54
2016-06-05T04:58:21.449Z,57.48
2016-06-05T04:59:21.499Z,57.09
2016-06-05T05:00:21.532Z,57.09
2016-06-05T05:01:21.582Z,57.09
2016-06-05T05:02:21.647Z,57.09
2016-06-05T05:03:21.696Z,56.99
2016-06-05T05:04:21.746Z,56.22
2016-06-05T05:05:21.780Z,56.99
2016-06-05T05:06:21.846Z,57.29
2016-06-05T05:07:21.895Z,57.77
2016-06-05T05:08:21.929Z,57.57
2016-06-05T05:09:21.994Z,57.57
2016-06-05T05:10:22.029Z,57.38
2016-06-05T05:11:22.093Z,57.77
2016-06-05T05:12:22.126Z,58.12
2016-06-05T05:13:22.193Z,57.64
2016-06-05T05:14:22.242Z,57.19
2016-06-05T05:15:22.307Z,57.38
2016-06-05T05:16:22.341Z,57.57
2016-06-05T05:17:22.390Z,57.38
2016-06-05T05:18:22.300Z,57.67
2016-06-05T05:19:22.489Z,57.67
2016-06-05T05:20:22.539Z,57.35
2016-06-05T05:21:22.589Z,57.84
2016-06-05T05:22:22.639Z,58.32
2016-06-05T05:23:22.689Z,58.32
2016-06-05T05:24:22.738Z,57.74
2016-06-05T05:25:22.787Z,57.38
2016-06-05T05:26:22.837Z,57.09
2016-06-05T05:27:22.886Z,56.99
2016-06-05T05:28:22.952Z,56.99
2016-06-05T05:29:22.985Z,57.29
2016-06-05T05:30:23.035Z,57.29
2016-06-05T05:31:23.085Z,56.8
2016-06-05T05:32:23.135Z,56.99
2016-06-05T05:33:23.183Z,56.22
2016-06-05T05:34:23.233Z,57.03
2016-06-05T05:35:23.267Z,56.9
2016-06-05T05:36:23.332Z,57.38
2016-06-05T05:37:23.382Z,57.29
2016-06-05T05:38:23.447Z,56.61
2016-06-05T05:39:23.465Z,56.35
2016-06-05T05:40:23.531Z,56.25
2016-06-05T05:41:23.627Z,56.05
2016-06-05T05:42:23.646Z,56.35
2016-06-05T05:43:23.679Z,55.96
2016-06-05T05:44:23.728Z,55.87
2016-06-05T05:45:23.779Z,55.38
2016-06-05T05:46:23.828Z,55.02
2016-06-05T05:47:23.893Z,54.93
2016-06-05T05:48:23.927Z,54.73
2016-06-05T05:49:23.976Z,54.44
2016-06-05T05:50:24.042Z,54.95
2016-06-05T05:51:24.092Z,54.53
2016-06-05T05:52:24.141Z,54.93
2016-06-05T05:53:24.191Z,55.02
2016-06-05T05:54:24.225Z,54.66
2016-06-05T05:55:24.289Z,53.5
2016-06-05T05:56:24.339Z,54.17
2016-06-05T05:57:24.373Z,53.89
2016-06-05T05:58:24.439Z,54.63
2016-06-05T05:59:24.488Z,54.37
2016-06-05T06:00:25.038Z,54.53
2016-06-05T06:01:24.603Z,54.73
2016-06-05T06:02:24.652Z,54.37
2016-06-05T06:03:24.671Z,54.37
2016-06-05T06:04:24.752Z,53.69
2016-06-05T06:05:24.801Z,54.57
2016-06-05T06:06:24.835Z,54.47
2016-06-05T06:07:24.899Z,54.08
2016-06-05T06:08:24.934Z,54.75
2016-06-05T06:09:24.984Z,55.11
2016-06-05T06:10:25.032Z,55.6
2016-06-05T06:11:25.082Z,55.6
2016-06-05T06:12:25.132Z,55.7
2016-06-05T06:13:26.041Z,55.51
2016-06-05T06:14:25.247Z,56.18
2016-06-05T06:15:25.296Z,55.7
2016-06-05T06:16:25.362Z,55.11
2016-06-05T06:17:25.395Z,55.41
2016-06-05T06:18:25.476Z,56.09
2016-06-05T06:19:25.495Z,55.41
2016-06-05T06:20:25.545Z,55.99
2016-06-05T06:21:25.609Z,55.89
2016-06-05T06:22:25.644Z,55.7
2016-06-05T06:23:25.692Z,55.6
2016-06-05T06:24:25.759Z,55.21
2016-06-05T06:25:25.808Z,55.05
2016-06-05T06:26:25.841Z,55.05
2016-06-05T06:27:25.891Z,53.99
2016-06-05T06:28:25.800Z,54.08
2016-06-05T06:29:26.005Z,53.69
2016-06-05T06:30:26.055Z,53.99
2016-06-05T06:31:26.105Z,53.79
2016-06-05T06:32:26.155Z,53.89
2016-06-05T06:33:26.204Z,53.69
2016-06-05T06:34:26.254Z,53.72
2016-06-05T06:35:26.163Z,54.08
2016-06-05T06:36:26.352Z,54.75
2016-06-05T06:37:26.402Z,53.99
2016-06-05T06:38:26.468Z,54.27
2016-06-05T06:39:26.518Z,54.47
2016-06-05T06:40:26.567Z,54.37
2016-06-05T06:41:26.663Z,54.57
2016-06-05T06:42:26.682Z,54.08
2016-06-05T06:43:26.731Z,54.17
2016-06-05T06:44:26.781Z,53.41
2016-06-05T06:45:26.815Z,53.81
2016-06-05T06:46:26.864Z,53.81
2016-06-05T06:47:26.930Z,52.85
2016-06-05T06:48:26.979Z,53.23
2016-06-05T06:49:27.028Z,53.23
2016-06-05T06:50:27.078Z,53.04
2016-06-05T06:51:27.128Z,52.85
2016-06-05T06:52:27.193Z,53.23
2016-06-05T06:53:27.242Z,52.58
2016-06-05T06:54:27.276Z,52.87
2016-06-05T06:55:27.325Z,52.2
2016-06-05T06:56:27.391Z,52.87
2016-06-05T06:57:27.425Z,52.97
2016-06-05T06:58:27.522Z,51.9
2016-06-05T06:59:27.524Z,51.04
2016-06-05T07:00:27.574Z,50.65
2016-06-05T07:01:27.639Z,50.65
2016-06-05T07:02:27.688Z,51.9
2016-06-05T07:03:27.738Z,51.62
2016-06-05T07:04:27.788Z,50.84
2016-06-05T07:05:27.853Z,51.04
2016-06-05T07:06:27.903Z,50.65
2016-06-05T07:07:27.952Z,51.06
2016-06-05T07:08:28.002Z,50.29
2016-06-05T07:09:28.067Z,50.45
2016-06-05T07:10:28.101Z,50.19
2016-06-05T07:11:27.993Z,50.67
2016-06-05T07:12:28.199Z,49.51
2016-06-05T07:13:28.469Z,50.48
2016-06-05T07:14:28.315Z,49.8
2016-06-05T07:15:28.365Z,49.7
2016-06-05T07:16:28.414Z,50.48
2016-06-05T07:17:28.462Z,48.95
2016-06-05T07:18:28.513Z,49.34
2016-06-05T07:19:28.563Z,50.29
2016-06-05T07:20:28.612Z,49.99
2016-06-05T07:21:28.661Z,49.61
2016-06-05T07:22:28.726Z,48.76
2016-06-05T07:23:28.792Z,48.66
2016-06-05T07:24:28.826Z,47.5
2016-06-05T07:25:28.875Z,48.85
2016-06-05T07:26:28.956Z,47.98
2016-06-05T07:27:28.990Z,47.89
2016-06-05T07:28:29.072Z,49.05
2016-06-05T07:29:29.089Z,48.08
2016-06-05T07:30:29.139Z,47.23
2016-06-05T07:31:29.205Z,47.42
2016-06-05T07:32:29.253Z,47.91
2016-06-05T07:33:29.303Z,49.05
2016-06-05T07:34:29.353Z,48.69
2016-06-05T07:35:29.402Z,47.62
2016-06-05T07:36:29.468Z,48.39
2016-06-05T07:37:29.516Z,48.47
2016-06-05T07:38:29.567Z,48.95
2016-06-05T07:39:29.601Z,48
2016-06-05T07:40:29.666Z,47.72
2016-06-05T07:41:29.762Z,48.1
2016-06-05T07:42:29.765Z,47.03
2016-06-05T07:43:29.830Z,46.86
2016-06-05T07:44:29.864Z,46.38
2016-06-05T07:45:29.913Z,46.48
2016-06-05T07:46:29.963Z,47.64
2016-06-05T07:47:30.013Z,45.89
2016-06-05T07:48:30.093Z,46.09
2016-06-05T07:49:30.128Z,46.38
2016-06-05T07:50:30.177Z,46.09
2016-06-05T07:51:30.242Z,44.73
2016-06-05T07:52:30.276Z,45.31
2016-06-05T07:53:30.342Z,45.8
2016-06-05T07:54:30.391Z,45.61
2016-06-05T07:55:30.456Z,43.98
2016-06-05T07:56:30.506Z,44.65
2016-06-05T07:57:30.539Z,43.3
2016-06-05T07:58:31.043Z,43.3
2016-06-05T07:59:30.670Z,43.68
2016-06-05T08:00:30.703Z,44.27
2016-06-05T08:01:30.770Z,44.85
2016-06-05T08:02:30.819Z,45.43
2016-06-05T08:03:30.883Z,44.65
2016-06-05T08:04:30.918Z,44.95
2016-06-05T08:05:30.983Z,44.68
2016-06-05T08:06:31.033Z,44.09
2016-06-05T08:07:31.082Z,43.8
2016-06-05T08:08:31.147Z,43.61
2016-06-05T08:09:31.182Z,44.09
2016-06-05T08:10:31.246Z,43.71
2016-06-05T08:11:31.280Z,43.71
2016-06-05T08:12:31.346Z,41.01
2016-06-05T08:13:32.286Z,41.3
2016-06-05T08:14:31.445Z,40.03
2016-06-05T08:15:31.493Z,39.45
2016-06-05T08:16:31.559Z,40.13
2016-06-05T08:17:31.609Z,40.13
2016-06-05T08:18:31.502Z,40.62
2016-06-05T08:19:31.708Z,38.87
2016-06-05T08:20:31.773Z,40.42
2016-06-05T08:21:31.823Z,39.65
2016-06-05T08:22:31.872Z,38.19
2016-06-05T08:23:31.923Z,39.75
2016-06-05T08:24:31.987Z,39.06
2016-06-05T08:25:32.037Z,39.76
2016-06-05T08:26:32.086Z,38.89
2016-06-05T08:27:32.714Z,36.07
2016-06-05T08:28:32.217Z,37.04
2016-06-05T08:29:32.251Z,36.75
2016-06-05T08:30:32.331Z,34.9
2016-06-05T08:31:32.381Z,35
2016-06-05T08:32:32.415Z,35.8
2016-06-05T08:33:32.465Z,35.11
2016-06-05T08:34:32.530Z,36.36
2016-06-05T08:35:32.580Z,36.75
2016-06-05T08:36:32.629Z,34.03
2016-06-05T08:37:32.678Z,34.9
2016-06-05T08:38:32.743Z,36.16
2016-06-05T08:39:32.793Z,33.07
2016-06-05T08:40:32.843Z,34.14
2016-06-05T08:41:32.955Z,33.36
2016-06-05T08:42:32.958Z,33.07
2016-06-05T08:43:33.007Z,32.49
2016-06-05T08:44:33.057Z,32.97
2016-06-05T08:45:33.122Z,33.85
2016-06-05T08:46:33.171Z,33.48
2016-06-05T08:47:33.205Z,33.58
2016-06-05T08:48:33.271Z,33.77
2016-06-05T08:49:33.335Z,32.6
2016-06-05T08:50:33.385Z,33.58
2016-06-05T08:51:33.451Z,33.38
2016-06-05T08:52:33.500Z,33.88
2016-06-05T08:53:33.550Z,32.91
2016-06-05T08:54:33.598Z,33.01
2016-06-05T08:55:33.648Z,31.54
2016-06-05T08:56:33.714Z,32.34
2016-06-05T08:57:33.779Z,31.37
2016-06-05T08:58:33.828Z,30.49
2016-06-05T08:59:33.862Z,30.29
2016-06-05T09:00:33.928Z,32.43
2016-06-05T09:01:33.978Z,33.2
2016-06-05T09:02:34.027Z,31.74
2016-06-05T09:03:34.092Z,32.81
2016-06-05T09:04:34.142Z,30.78
2016-06-05T09:05:34.192Z,31.66
2016-06-05T09:06:34.241Z,31.66
2016-06-05T09:07:34.150Z,30.1
2016-06-05T09:08:34.356Z,29.81
2016-06-05T09:09:34.421Z,29.71
2016-06-05T09:10:34.471Z,28.93
2016-06-05T09:11:34.363Z,29.61
2016-06-05T09:12:34.601Z,30.29
2016-06-05T09:13:34.557Z,29.71
2016-06-05T09:14:34.684Z,30.88
2016-06-05T09:15:34.749Z,31.84
2016-06-05T09:16:34.783Z,30.78
2016-06-05T09:17:34.849Z,29.89
2016-06-05T09:18:34.913Z,30.49
2016-06-05T09:19:34.963Z,29.52
2016-06-05T09:20:35.013Z,30.1
2016-06-05T09:21:35.079Z,30.7
2016-06-05T09:22:35.128Z,29.92
2016-06-05T09:23:35.176Z,28.94
2016-06-05T09:24:35.226Z,30.22
2016-06-05T09:25:35.293Z,29.93
2016-06-05T09:26:35.357Z,28.19
2016-06-05T09:27:35.891Z,28.39
2016-06-05T09:28:36.347Z,29.85
2016-06-05T09:29:35.537Z,28.49
2016-06-05T09:30:35.556Z,28.97
2016-06-05T09:31:35.605Z,27.41
2016-06-05T09:32:35.670Z,27.22
2016-06-05T09:33:35.736Z,27.12
2016-06-05T09:34:35.786Z,26.24
2016-06-05T09:35:35.834Z,26.43
2016-06-05T09:36:35.899Z,26.54
2016-06-05T09:37:35.933Z,25.96
2016-06-05T09:38:36.014Z,25.96
2016-06-05T09:39:36.064Z,26.07
2016-06-05T09:40:36.113Z,25.98
2016-06-05T09:41:36.226Z,25.78
2016-06-05T09:42:36.416Z,25.39
2016-06-05T09:43:36.309Z,24.12
2016-06-05T09:44:36.358Z,24.42
2016-06-05T09:45:36.393Z,23.34
2016-06-05T09:46:36.443Z,24.71
2016-06-05T09:47:36.491Z,22.96
2016-06-05T09:48:36.557Z,21.39
2016-06-05T09:49:36.622Z,22.08
2016-06-05T09:50:36.657Z,22.76
2016-06-05T09:51:36.721Z,22.76
2016-06-05T09:52:36.771Z,22.17
2016-06-05T09:53:36.820Z,22.96
2016-06-05T09:54:36.885Z,22.96
2016-06-05T09:55:36.951Z,23.26
2016-06-05T09:56:37.001Z,23.07
2016-06-05T09:57:37.722Z,23.36
2016-06-05T09:58:37.553Z,23.86
2016-06-05T09:59:37.165Z,22.69
2016-06-05T10:00:37.231Z,22.78
2016-06-05T10:01:37.279Z,22.69
2016-06-05T10:02:37.329Z,23.76
2016-06-05T10:03:37.394Z,23.08
2016-06-05T10:04:37.444Z,22.2
2016-06-05T10:05:37.508Z,22.41
2016-06-05T10:06:37.559Z,23.28
2016-06-05T10:07:37.624Z,24.55
2016-06-05T10:08:37.673Z,22.98
2016-06-05T10:09:37.738Z,23.18
2016-06-05T10:10:37.788Z,23.27
2016-06-05T10:11:37.853Z,23.19
2016-06-05T10:12:37.903Z,23.87
2016-06-05T10:13:38.718Z,22.6
2016-06-05T10:14:38.001Z,21.33
2016-06-05T10:15:38.082Z,22.02
2016-06-05T10:16:38.116Z,21.55
2016-06-05T10:17:38.401Z,21.35
2016-06-05T10:18:38.231Z,22.92
2016-06-05T10:19:38.296Z,22.24
2016-06-05T10:20:38.346Z,22.23
2016-06-05T10:21:38.411Z,22.23
2016-06-05T10:22:38.460Z,22.91
2016-06-05T10:23:38.510Z,23.02
2016-06-05T10:24:38.576Z,23.41
2016-06-05T10:25:38.626Z,22.81
2016-06-05T10:26:38.675Z,22.14
2016-06-05T10:27:38.739Z,22.92
2016-06-05T10:28:39.462Z,23.02
2016-06-05T10:29:38.855Z,22.91
2016-06-05T10:30:38.920Z,22.91
2016-06-05T10:31:38.984Z,23.52
2016-06-05T10:32:39.050Z,23.02
2016-06-05T10:33:39.084Z,23.02
2016-06-05T10:34:39.134Z,23.12
2016-06-05T10:35:39.183Z,23.81
2016-06-05T10:36:39.248Z,23.03
2016-06-05T10:37:39.314Z,23.63
2016-06-05T10:38:39.363Z,22.64
2016-06-05T10:39:39.413Z,22.16
2016-06-05T10:40:39.494Z,21.49
2016-06-05T10:41:39.590Z,21.8
2016-06-05T10:42:39.968Z,21.9
2016-06-05T10:43:39.502Z,21.8
2016-06-05T10:44:39.723Z,22.37
2016-06-05T10:45:39.758Z,22.17
2016-06-05T10:46:39.822Z,22.06
2016-06-05T10:47:39.887Z,21.19
2016-06-05T10:48:39.937Z,20.41
2016-06-05T10:49:39.987Z,21.59
2016-06-05T10:50:40.052Z,21.39
2016-06-05T10:51:40.117Z,21.49
2016-06-05T10:52:40.166Z,21.59
2016-06-05T10:53:40.231Z,20.62
2016-06-05T10:54:40.282Z,20.51
2016-06-05T10:55:40.346Z,20.32
2016-06-05T10:56:40.396Z,20.51
2016-06-05T10:57:40.929Z,21.49
2016-06-05T10:58:40.792Z,20.61
2016-06-05T10:59:40.560Z,20.03
2016-06-05T11:00:40.625Z,20.42
2016-06-05T11:01:40.690Z,20.81
2016-06-05T11:02:40.756Z,21.88
2016-06-05T11:03:40.806Z,19.92
2016-06-05T11:04:40.871Z,20.32
2016-06-05T11:05:40.920Z,19.84
2016-06-05T11:06:40.813Z,19.74
2016-06-05T11:07:41.019Z,20.03
2016-06-05T11:08:41.084Z,20.42
2016-06-05T11:09:41.150Z,19.64
2016-06-05T11:10:41.215Z,20.32
2016-06-05T11:11:41.249Z,20.21
2016-06-05T11:12:41.330Z,21.09
2016-06-05T11:13:41.380Z,19.73
2016-06-05T11:14:41.430Z,20.43
2016-06-05T11:15:41.493Z,19.95
2016-06-05T11:16:41.543Z,20.14
2016-06-05T11:17:41.593Z,18.76
2016-06-05T11:18:41.658Z,19.54
2016-06-05T11:19:41.724Z,19.36
2016-06-05T11:20:41.773Z,20.04
2016-06-05T11:21:41.854Z,20.03
2016-06-05T11:22:41.903Z,21.4
2016-06-05T11:23:41.953Z,21.19
2016-06-05T11:24:42.018Z,20.59
2016-06-05T11:25:42.099Z,20.7
2016-06-05T11:26:42.133Z,19.83
2016-06-05T11:27:42.730Z,19.94
2016-06-05T11:28:42.232Z,20.04
2016-06-05T11:29:42.298Z,19.46
2016-06-05T11:30:42.362Z,19.86
2016-06-05T11:31:42.428Z,18.38
2016-06-05T11:32:42.478Z,19.08
2016-06-05T11:33:42.542Z,18.79
2016-06-05T11:34:42.592Z,18.3
2016-06-05T11:35:42.657Z,18.01
2016-06-05T11:36:42.706Z,18.11
2016-06-05T11:37:42.616Z,18.01
2016-06-05T11:38:42.822Z,19.18
2016-06-05T11:39:42.903Z,18.01
2016-06-05T11:40:42.936Z,18.02
2016-06-05T11:41:43.064Z,17.03
2016-06-05T11:42:43.894Z,17.72
2016-06-05T11:43:43.741Z,17.54
2016-06-05T11:44:43.181Z,16.95
2016-06-05T11:45:43.247Z,16.95
2016-06-05T11:46:43.296Z,17.92
2016-06-05T11:47:43.377Z,17.92
2016-06-05T11:48:43.271Z,17.73
2016-06-05T11:49:43.491Z,18.23
2016-06-05T11:50:43.541Z,19.01
2016-06-05T11:51:43.606Z,19.78
2016-06-05T11:52:43.671Z,19.19
2016-06-05T11:53:43.722Z,18.5
2016-06-05T11:54:43.615Z,18.11
2016-06-05T11:55:43.835Z,18.39
2016-06-05T11:56:43.901Z,18.69
2016-06-05T11:57:45.326Z,18.4
2016-06-05T11:58:45.062Z,18.02
2016-06-05T11:59:44.081Z,18.71
2016-06-05T12:00:44.146Z,18.42
2016-06-05T12:01:44.195Z,17.83
2016-06-05T12:02:44.261Z,17.74
2016-06-05T12:03:44.311Z,16.85
2016-06-05T12:04:44.391Z,16.87
2016-06-05T12:05:44.442Z,16.57
2016-06-05T12:06:44.507Z,16.87
2016-06-05T12:07:44.586Z,16.56
2016-06-05T12:08:44.621Z,16.38
2016-06-05T12:09:44.703Z,15.88
2016-06-05T12:10:44.751Z,16.78
2016-06-05T12:11:44.833Z,16.78
2016-06-05T12:12:44.882Z,17.85
2016-06-05T12:13:45.634Z,18.42
2016-06-05T12:14:44.996Z,18.79
2016-06-05T12:15:45.062Z,19.29
2016-06-05T12:16:45.127Z,20.07
2016-06-05T12:17:45.191Z,19.67
2016-06-05T12:18:45.242Z,19.87
2016-06-05T12:19:45.307Z,20.06
2016-06-05T12:20:45.372Z,19.3
2016-06-05T12:21:45.422Z,19
2016-06-05T12:22:45.487Z,19.11
2016-06-05T12:23:45.552Z,18.04
2016-06-05T12:24:45.617Z,16.95
2016-06-05T12:25:45.527Z,17.94
2016-06-05T12:26:45.731Z,17.44
2016-06-05T12:27:45.812Z,16.75
2016-06-05T12:28:45.706Z,16.55
2016-06-05T12:29:45.912Z,16.16
2016-06-05T12:30:45.992Z,16.66
2016-06-05T12:31:46.073Z,16.36
2016-06-05T12:32:46.107Z,17.73
2016-06-05T12:33:46.173Z,16.93
2016-06-05T12:34:46.254Z,17.24
2016-06-05T12:35:46.318Z,17.25
2016-06-05T12:36:46.367Z,15.78
2016-06-05T12:37:46.418Z,15.69
2016-06-05T12:38:46.498Z,15.58
2016-06-05T12:39:46.564Z,15.88
2016-06-05T12:40:46.628Z,15.47
2016-06-05T12:41:46.726Z,15.97
2016-06-05T12:42:47.072Z,16.95
2016-06-05T12:43:46.809Z,16.16
2016-06-05T12:44:46.890Z,16.47
2016-06-05T12:45:46.955Z,16.07
2016-06-05T12:46:47.005Z,15.29
2016-06-05T12:47:47.054Z,15.1
2016-06-05T12:48:47.135Z,14.9
2016-06-05T12:49:47.185Z,15.01
2016-06-05T12:50:47.265Z,15.2
2016-06-05T12:51:47.158Z,14.61
2016-06-05T12:52:47.380Z,15.49
2016-06-05T12:53:47.461Z,15.7
2016-06-05T12:54:47.510Z,13.93